createdAt,value
2023-03-29T00:01:42.511Z,95516.03
2023-03-29T00:04:10.206Z,95528.72
2023-03-29T00:06:37.772Z,95536.44
2023-03-29T00:09:06.083Z,95531.81
2023-03-29T00:11:33.284Z,95535.41
2023-03-29T00:13:59.838Z,95547.66
2023-03-29T00:16:26.700Z,95541.78
2023-03-29T00:18:53.280Z,95540.97
2023-03-29T00:21:19.958Z,95553.09
2023-03-29T00:23:46.610Z,95549.25
2023-03-29T00:26:13.239Z,95551.00
2023-03-29T00:28:39.939Z,95535.44
2023-03-29T00:31:11.206Z,95546.38
2023-03-29T00:33:38.830Z,95539.63
2023-03-29T00:36:07.382Z,95540.44
2023-03-29T00:38:34.838Z,95546.38
2023-03-29T00:41:02.199Z,95555.75
2023-03-29T00:43:29.080Z,95545.22
2023-03-29T00:45:56.121Z,95537.09
2023-03-29T00:48:27.150Z,95541.06
2023-03-29T00:51:08.205Z,95532.06
2023-03-29T00:53:42.637Z,95539.13
2023-03-29T00:56:14.356Z,95528.81
2023-03-29T00:58:55.187Z,95533.31
2023-03-29T01:01:54.384Z,95537.25
2023-03-29T01:04:29.469Z,95522.59
2023-03-29T01:07:03.173Z,95508.06
2023-03-29T01:09:33.454Z,95513.00
2023-03-29T01:12:08.258Z,95491.91
2023-03-29T01:14:41.994Z,95470.97
2023-03-29T01:17:12.837Z,95465.06
2023-03-29T01:19:50.134Z,95472.78
2023-03-29T01:22:26.092Z,95475.44
2023-03-29T01:25:07.198Z,95470.28
2023-03-29T01:27:50.027Z,95452.69
2023-03-29T01:30:23.774Z,95443.13
2023-03-29T01:33:31.618Z,95446.97
2023-03-29T01:36:24.852Z,95434.44
2023-03-29T01:39:00.869Z,95441.25
2023-03-29T01:41:41.126Z,95427.94
2023-03-29T01:44:18.473Z,95423.16
2023-03-29T01:46:45.388Z,95415.03
2023-03-29T01:49:23.681Z,95415.03
2023-03-29T01:52:06.390Z,95415.31
2023-03-29T01:54:41.399Z,95405.69
2023-03-29T01:57:10.572Z,95402.56
2023-03-29T01:59:42.689Z,95397.72
2023-03-29T02:02:14.684Z,95392.13
2023-03-29T02:04:50.221Z,95380.19
2023-03-29T02:07:21.257Z,95383.63
2023-03-29T02:09:52.534Z,95381.63
2023-03-29T02:12:20.664Z,95373.31
2023-03-29T02:14:47.229Z,95361.97
2023-03-29T02:17:19.868Z,95367.78
2023-03-29T02:19:52.071Z,95358.31
2023-03-29T02:22:33.484Z,95358.31
2023-03-29T02:25:04.801Z,95360.47
2023-03-29T02:27:31.773Z,95352.41
2023-03-29T02:29:58.459Z,95334.16
2023-03-29T02:32:50.804Z,95327.72
2023-03-29T02:35:41.027Z,95339.66
2023-03-29T02:38:11.384Z,95327.44
2023-03-29T02:40:40.639Z,95327.56
2023-03-29T02:43:09.371Z,95322.00
2023-03-29T02:45:38.008Z,95326.28
2023-03-29T02:48:08.999Z,95322.47
2023-03-29T02:50:39.535Z,95317.97
2023-03-29T02:53:13.266Z,95315.81
2023-03-29T02:55:41.870Z,95327.56
2023-03-29T02:58:08.658Z,95319.19
2023-03-29T03:00:39.568Z,95340.41
2023-03-29T03:03:08.095Z,95338.84
2023-03-29T03:05:36.122Z,95327.09
2023-03-29T03:08:04.663Z,95325.72
2023-03-29T03:10:33.196Z,95316.44
2023-03-29T03:13:00.426Z,95309.94
2023-03-29T03:15:31.082Z,95309.75
2023-03-29T03:17:58.010Z,95305.97
2023-03-29T03:20:24.898Z,95305.38
2023-03-29T03:22:51.881Z,95311.38
2023-03-29T03:25:21.175Z,95302.53
2023-03-29T03:27:50.409Z,95300.59
2023-03-29T03:30:20.838Z,95299.91
2023-03-29T03:33:13.382Z,95299.13
2023-03-29T03:36:04.628Z,95297.91
2023-03-29T03:38:36.045Z,95296.16
2023-03-29T03:41:04.830Z,95292.09
2023-03-29T03:43:34.125Z,95286.59
2023-03-29T03:46:01.632Z,95271.16
2023-03-29T03:48:29.547Z,95271.75
2023-03-29T03:51:20.144Z,95277.59
2023-03-29T03:53:47.343Z,95280.06
2023-03-29T03:56:14.229Z,95284.13
2023-03-29T03:59:07.364Z,95286.03
2023-03-29T04:01:53.728Z,95286.16
2023-03-29T04:04:23.535Z,95291.03
2023-03-29T04:07:17.760Z,95278.47
2023-03-29T04:10:04.308Z,95282.03
2023-03-29T04:12:30.983Z,95283.97
2023-03-29T04:14:58.082Z,95287.50
2023-03-29T04:17:27.194Z,95286.00
2023-03-29T04:20:12.792Z,95287.91
2023-03-29T04:22:41.011Z,95282.47
2023-03-29T04:25:08.303Z,95282.63
2023-03-29T04:27:47.539Z,95274.66
2023-03-29T04:30:25.198Z,95285.59
2023-03-29T04:33:08.829Z,95264.44
2023-03-29T04:35:37.089Z,95268.84
2023-03-29T04:38:04.516Z,95261.91
2023-03-29T04:40:31.854Z,95273.28
2023-03-29T04:43:31.239Z,95270.69
2023-03-29T04:46:09.934Z,95264.31
2023-03-29T04:48:50.655Z,95266.31
2023-03-29T04:51:22.383Z,95268.75
2023-03-29T04:53:52.206Z,95264.59
2023-03-29T04:56:18.870Z,95274.09
2023-03-29T04:59:05.601Z,95269.59
2023-03-29T05:01:32.772Z,95263.94
2023-03-29T05:03:59.377Z,95265.78
2023-03-29T05:06:37.113Z,95266.00
2023-03-29T05:09:08.846Z,95262.97
2023-03-29T05:11:46.303Z,95256.38
2023-03-29T05:14:13.732Z,95251.50
2023-03-29T05:16:44.132Z,95255.91
2023-03-29T05:19:11.639Z,95257.16
2023-03-29T05:21:43.686Z,95263.06
2023-03-29T05:24:14.451Z,95257.34
2023-03-29T05:26:58.626Z,95255.97
2023-03-29T05:29:28.052Z,95260.50
2023-03-29T05:32:07.148Z,95260.19
2023-03-29T05:34:34.310Z,95261.09
2023-03-29T05:37:02.237Z,95262.75
2023-03-29T05:39:37.855Z,95249.19
2023-03-29T05:42:05.911Z,95249.44
2023-03-29T05:44:43.322Z,95258.69
2023-03-29T05:47:16.769Z,95246.53
2023-03-29T05:49:44.484Z,95242.56
2023-03-29T05:52:14.596Z,95239.09
2023-03-29T05:54:42.204Z,95237.50
2023-03-29T05:57:09.932Z,95251.34
2023-03-29T05:59:37.165Z,95257.97
2023-03-29T06:02:05.234Z,95254.75
2023-03-29T06:04:35.825Z,95260.97
2023-03-29T06:07:23.592Z,95267.72
2023-03-29T06:10:10.828Z,95267.03
2023-03-29T06:12:39.882Z,95264.72
2023-03-29T06:15:07.187Z,95273.81
2023-03-29T06:17:54.069Z,95275.47
2023-03-29T06:20:21.784Z,95274.50
2023-03-29T06:22:53.823Z,95280.59
2023-03-29T06:25:20.472Z,95286.78
2023-03-29T06:27:49.564Z,95295.63
2023-03-29T06:30:19.245Z,95285.97
2023-03-29T06:32:50.794Z,95296.47
2023-03-29T06:35:37.231Z,95286.78
2023-03-29T06:38:08.133Z,95294.88
2023-03-29T06:41:02.457Z,95283.91
2023-03-29T06:43:39.022Z,95288.56
2023-03-29T06:46:11.923Z,95292.28
2023-03-29T06:48:53.320Z,95287.97
2023-03-29T06:51:23.227Z,95297.66
2023-03-29T06:53:50.349Z,95299.56
2023-03-29T06:56:17.581Z,95299.00
2023-03-29T06:59:08.505Z,95300.97
2023-03-29T07:01:47.232Z,95305.03
2023-03-29T07:04:22.502Z,95305.47
2023-03-29T07:07:19.810Z,95309.06
2023-03-29T07:09:54.030Z,95299.88
2023-03-29T07:12:41.071Z,95313.41
2023-03-29T07:15:09.585Z,95320.88
2023-03-29T07:17:59.919Z,95313.91
2023-03-29T07:20:27.289Z,95321.84
2023-03-29T07:23:06.558Z,95321.16
2023-03-29T07:25:33.934Z,95327.56
2023-03-29T07:28:00.810Z,95319.75
2023-03-29T07:30:32.133Z,95320.22
2023-03-29T07:33:29.428Z,95314.81
2023-03-29T07:36:00.908Z,95324.16
2023-03-29T07:38:28.105Z,95317.53
2023-03-29T07:41:04.190Z,95316.91
2023-03-29T07:43:42.324Z,95323.91
2023-03-29T07:46:11.842Z,95317.63
2023-03-29T07:48:39.264Z,95313.31
2023-03-29T07:51:08.209Z,95317.28
2023-03-29T07:53:43.039Z,95323.44
2023-03-29T07:56:27.869Z,95302.31
2023-03-29T07:59:17.792Z,95308.84
2023-03-29T08:01:50.308Z,95317.06
2023-03-29T08:04:28.621Z,95314.97
2023-03-29T08:07:17.687Z,95309.13
2023-03-29T08:10:19.809Z,95311.78
2023-03-29T08:12:59.206Z,95306.19
2023-03-29T08:15:46.221Z,95308.97
2023-03-29T08:18:23.038Z,95316.13
2023-03-29T08:20:50.894Z,95312.84
2023-03-29T08:23:17.500Z,95317.56
2023-03-29T08:26:04.538Z,95314.22
2023-03-29T08:28:31.312Z,95323.28
2023-03-29T08:30:57.886Z,95314.59
2023-03-29T08:33:24.745Z,95314.59
2023-03-29T08:36:02.013Z,95317.72
2023-03-29T08:38:32.349Z,95313.97
2023-03-29T08:40:59.010Z,95312.16
2023-03-29T08:43:44.272Z,95309.69
2023-03-29T08:46:35.956Z,95305.78
2023-03-29T08:49:19.346Z,95297.88
2023-03-29T08:51:49.881Z,95301.31
2023-03-29T08:54:45.900Z,95303.56
2023-03-29T08:57:40.394Z,95303.16
2023-03-29T09:00:20.930Z,95311.94
2023-03-29T09:02:51.912Z,95305.97
2023-03-29T09:05:26.794Z,95300.78
2023-03-29T09:08:16.372Z,95313.94
2023-03-29T09:10:54.011Z,95306.13
2023-03-29T09:13:42.601Z,95298.03
2023-03-29T09:16:38.122Z,95304.25
2023-03-29T09:19:26.710Z,95297.50
2023-03-29T09:22:14.008Z,95295.47
2023-03-29T09:24:47.119Z,95282.84
2023-03-29T09:27:28.027Z,95281.47
2023-03-29T09:30:25.721Z,95281.06
2023-03-29T09:33:08.153Z,95284.31
2023-03-29T09:36:07.960Z,95272.34
2023-03-29T09:38:42.396Z,95286.19
2023-03-29T09:41:41.673Z,95291.88
2023-03-29T09:44:28.134Z,95300.50
2023-03-29T09:47:08.640Z,95291.97
2023-03-29T09:49:41.753Z,95289.00
2023-03-29T09:52:14.330Z,95284.66
2023-03-29T09:54:46.592Z,95279.97
2023-03-29T09:57:40.249Z,95272.66
2023-03-29T10:00:09.525Z,95275.34
2023-03-29T10:02:40.623Z,95273.03
2023-03-29T10:05:16.113Z,95271.56
2023-03-29T10:07:58.971Z,95261.56
2023-03-29T10:10:35.309Z,95272.19
2023-03-29T10:13:12.300Z,95266.69
2023-03-29T10:15:38.897Z,95273.38
2023-03-29T10:18:13.587Z,95262.47
2023-03-29T10:20:40.986Z,95261.91
2023-03-29T10:23:09.193Z,95254.31
2023-03-29T10:25:42.808Z,95235.91
2023-03-29T10:28:16.183Z,95244.13
2023-03-29T10:30:45.771Z,95249.66
2023-03-29T10:33:18.885Z,95251.31
2023-03-29T10:35:47.377Z,95253.22
2023-03-29T10:38:17.609Z,95244.53
2023-03-29T10:40:47.303Z,95233.31
2023-03-29T10:43:17.176Z,95246.16
2023-03-29T10:45:44.172Z,95237.22
2023-03-29T10:48:16.058Z,95227.75
2023-03-29T10:50:43.320Z,95236.94
2023-03-29T10:53:20.463Z,95229.66
2023-03-29T10:56:11.304Z,95228.78
2023-03-29T10:58:44.098Z,95222.94
2023-03-29T11:01:18.308Z,95230.06
2023-03-29T11:04:10.331Z,95231.84
2023-03-29T11:06:47.402Z,95228.44
2023-03-29T11:09:35.415Z,95226.78
2023-03-29T11:12:16.438Z,95228.28
2023-03-29T11:14:52.745Z,95227.44
2023-03-29T11:17:38.337Z,95221.41
2023-03-29T11:20:19.497Z,95229.38
2023-03-29T11:22:57.998Z,95214.75
2023-03-29T11:25:35.613Z,95226.56
2023-03-29T11:28:29.391Z,95217.66
2023-03-29T11:31:40.704Z,95220.47
2023-03-29T11:34:25.542Z,95223.19
2023-03-29T11:37:06.131Z,95220.13
2023-03-29T11:39:52.948Z,95226.78
2023-03-29T11:42:24.748Z,95227.09
2023-03-29T11:44:55.766Z,95220.78
2023-03-29T11:47:27.736Z,95226.97
2023-03-29T11:50:00.396Z,95216.72
2023-03-29T11:52:32.891Z,95215.28
2023-03-29T11:55:12.088Z,95206.69
2023-03-29T11:57:53.925Z,95212.03
2023-03-29T12:00:22.769Z,95214.78
2023-03-29T12:03:02.112Z,95206.00
2023-03-29T12:05:34.679Z,95210.09
2023-03-29T12:08:14.786Z,95212.63
2023-03-29T12:10:47.605Z,95213.78
2023-03-29T12:13:23.919Z,95212.53
2023-03-29T12:16:10.314Z,95201.66
2023-03-29T12:18:42.152Z,95192.50
2023-03-29T12:21:19.749Z,95204.66
2023-03-29T12:23:47.889Z,95180.84
2023-03-29T12:26:40.604Z,95194.13
2023-03-29T12:29:48.790Z,95187.19
2023-03-29T12:33:01.760Z,95184.50
2023-03-29T12:35:54.106Z,95184.03
2023-03-29T12:38:45.134Z,95185.31
2023-03-29T12:41:51.873Z,95178.94
2023-03-29T12:44:50.555Z,95182.72
2023-03-29T12:47:32.630Z,95177.38
2023-03-29T12:50:01.392Z,95173.75
2023-03-29T12:52:33.492Z,95181.78
2023-03-29T12:55:17.040Z,95179.47
2023-03-29T12:58:09.619Z,95172.19
2023-03-29T13:00:36.615Z,95185.34
2023-03-29T13:03:19.816Z,95175.22
2023-03-29T13:05:47.438Z,95175.72
2023-03-29T13:08:27.931Z,95178.44
2023-03-29T13:10:56.443Z,95180.22
2023-03-29T13:13:40.895Z,95172.66
2023-03-29T13:16:14.203Z,95162.38
2023-03-29T13:19:09.883Z,95176.44
2023-03-29T13:21:48.709Z,95169.66
2023-03-29T13:24:39.090Z,95170.16
2023-03-29T13:27:14.942Z,95174.75
2023-03-29T13:30:12.899Z,95173.97
2023-03-29T13:32:49.734Z,95179.34
2023-03-29T13:35:40.352Z,95177.75
2023-03-29T13:38:10.437Z,95178.09
2023-03-29T13:40:39.921Z,95182.69
2023-03-29T13:43:21.740Z,95174.25
2023-03-29T13:46:04.103Z,95169.25
2023-03-29T13:48:46.788Z,95176.53
2023-03-29T13:51:13.412Z,95165.19
2023-03-29T13:54:06.093Z,95163.25
2023-03-29T13:56:40.069Z,95162.13
2023-03-29T13:59:20.730Z,95150.94
2023-03-29T14:01:57.296Z,95154.69
2023-03-29T14:04:27.516Z,95153.53
2023-03-29T14:06:59.440Z,95146.25
2023-03-29T14:09:30.968Z,95147.56
2023-03-29T14:12:01.278Z,95156.13
2023-03-29T14:14:31.554Z,95145.44
2023-03-29T14:17:00.563Z,95148.03
2023-03-29T14:19:36.497Z,95142.19
2023-03-29T14:22:09.251Z,95136.38
2023-03-29T14:24:40.969Z,95133.47
2023-03-29T14:27:10.295Z,95136.34
2023-03-29T14:29:37.361Z,95137.31
2023-03-29T14:32:18.272Z,95138.78
2023-03-29T14:34:49.083Z,95137.19
2023-03-29T14:37:27.664Z,95147.19
2023-03-29T14:39:54.937Z,95142.66
2023-03-29T14:42:26.708Z,95146.88
2023-03-29T14:45:01.909Z,95144.28
2023-03-29T14:47:31.225Z,95145.91
2023-03-29T14:50:00.956Z,95147.50
2023-03-29T14:52:29.345Z,95151.06
2023-03-29T14:54:59.262Z,95154.91
2023-03-29T14:57:28.970Z,95168.47
2023-03-29T15:00:00.376Z,95174.56
2023-03-29T15:02:32.619Z,95182.81
2023-03-29T15:05:05.319Z,95172.88
2023-03-29T15:07:35.281Z,95179.81
2023-03-29T15:10:05.352Z,95177.19
2023-03-29T15:12:33.530Z,95169.25
2023-03-29T15:15:02.639Z,95162.28
2023-03-29T15:17:50.941Z,95158.84
2023-03-29T15:20:29.061Z,95151.84
2023-03-29T15:23:07.685Z,95144.75
2023-03-29T15:25:37.445Z,95130.75
2023-03-29T15:28:05.020Z,95128.56
2023-03-29T15:30:39.588Z,95119.84
2023-03-29T15:33:15.262Z,95120.75
2023-03-29T15:35:43.993Z,95117.25
2023-03-29T15:38:13.026Z,95121.84
2023-03-29T15:40:40.075Z,95122.25
2023-03-29T15:43:07.595Z,95123.84
2023-03-29T15:45:34.683Z,95126.94
2023-03-29T15:48:04.802Z,95127.28
2023-03-29T15:50:32.620Z,95120.16
2023-03-29T15:53:05.399Z,95127.59
2023-03-29T15:55:44.842Z,95129.41
2023-03-29T15:58:15.346Z,95135.25
2023-03-29T16:00:44.489Z,95131.41
2023-03-29T16:03:18.090Z,95132.91
2023-03-29T16:05:46.275Z,95129.72
2023-03-29T16:08:13.752Z,95124.19
2023-03-29T16:10:43.872Z,95120.00
2023-03-29T16:13:14.032Z,95107.91
2023-03-29T16:15:42.383Z,95098.41
2023-03-29T16:18:09.366Z,95097.44
2023-03-29T16:20:36.200Z,95083.88
2023-03-29T16:23:08.674Z,95080.78
2023-03-29T16:25:38.318Z,95076.34
2023-03-29T16:28:05.623Z,95072.88
2023-03-29T16:30:32.750Z,95075.16
2023-03-29T16:32:59.570Z,95074.84
2023-03-29T16:35:32.115Z,95074.09
2023-03-29T16:37:59.157Z,95074.44
2023-03-29T16:40:26.103Z,95076.28
2023-03-29T16:42:52.835Z,95069.44
2023-03-29T16:45:19.726Z,95068.63
2023-03-29T16:47:47.081Z,95070.50
2023-03-29T16:50:16.368Z,95080.00
2023-03-29T16:52:43.413Z,95077.84
2023-03-29T16:55:19.077Z,95072.59
2023-03-29T16:57:55.493Z,95075.56
2023-03-29T17:00:22.243Z,95079.81
2023-03-29T17:02:52.605Z,95077.91
2023-03-29T17:05:19.474Z,95077.78
2023-03-29T17:07:47.053Z,95074.78
2023-03-29T17:10:14.418Z,95074.28
2023-03-29T17:12:41.253Z,95072.41
2023-03-29T17:15:09.298Z,95070.66
2023-03-29T17:17:37.492Z,95078.13
2023-03-29T17:20:08.501Z,95072.59
2023-03-29T17:22:35.843Z,95072.75
2023-03-29T17:25:03.845Z,95081.59
2023-03-29T17:27:30.588Z,95078.75
2023-03-29T17:29:57.278Z,95083.22
2023-03-29T17:32:23.945Z,95073.91
2023-03-29T17:34:51.348Z,95076.31
2023-03-29T17:37:18.392Z,95072.53
2023-03-29T17:39:46.020Z,95072.25
2023-03-29T17:42:12.885Z,95079.84
2023-03-29T17:44:39.447Z,95073.31
2023-03-29T17:47:06.029Z,95066.13
2023-03-29T17:49:32.886Z,95065.78
2023-03-29T17:51:59.621Z,95077.19
2023-03-29T17:54:27.100Z,95077.59
2023-03-29T17:56:53.695Z,95074.78
2023-03-29T17:59:20.355Z,95077.09
2023-03-29T18:01:47.183Z,95077.09
2023-03-29T18:04:13.751Z,95082.78
2023-03-29T18:06:40.596Z,95076.84
2023-03-29T18:09:07.609Z,95092.00
2023-03-29T18:11:36.545Z,95089.44
2023-03-29T18:14:04.818Z,95085.50
2023-03-29T18:16:31.776Z,95084.81
2023-03-29T18:18:58.613Z,95085.78
2023-03-29T18:21:26.274Z,95080.91
2023-03-29T18:23:55.516Z,95077.41
2023-03-29T18:26:23.473Z,95080.22
2023-03-29T18:28:51.010Z,95080.50
2023-03-29T18:31:19.615Z,95083.22
2023-03-29T18:33:46.976Z,95088.19
2023-03-29T18:36:14.488Z,95094.97
2023-03-29T18:38:43.395Z,95097.94
2023-03-29T18:41:12.471Z,95103.59
2023-03-29T18:43:40.751Z,95094.81
2023-03-29T18:46:08.286Z,95097.78
2023-03-29T18:48:42.129Z,95090.50
2023-03-29T18:51:11.244Z,95092.94
2023-03-29T18:53:39.179Z,95089.53
2023-03-29T18:56:07.974Z,95094.69
2023-03-29T18:58:35.001Z,95097.25
2023-03-29T19:01:04.472Z,95095.69
2023-03-29T19:03:32.138Z,95095.25
2023-03-29T19:05:58.997Z,95089.28
2023-03-29T19:08:26.314Z,95095.41
2023-03-29T19:10:53.441Z,95089.88
2023-03-29T19:13:20.000Z,95086.31
2023-03-29T19:15:47.486Z,95088.22
2023-03-29T19:18:14.424Z,95091.84
2023-03-29T19:20:41.284Z,95092.84
2023-03-29T19:23:08.173Z,95094.13
2023-03-29T19:25:35.274Z,95094.63
2023-03-29T19:28:03.685Z,95092.53
2023-03-29T19:30:31.419Z,95092.47
2023-03-29T19:32:58.047Z,95095.81
2023-03-29T19:35:24.854Z,95108.22
2023-03-29T19:37:51.558Z,95106.41
2023-03-29T19:40:18.214Z,95114.59
2023-03-29T19:42:44.745Z,95125.00
2023-03-29T19:45:11.848Z,95144.09
2023-03-29T19:47:38.850Z,95139.31
2023-03-29T19:50:07.139Z,95144.91
2023-03-29T19:52:33.914Z,95125.81
2023-03-29T19:55:00.806Z,95125.81
2023-03-29T19:57:28.274Z,95127.59
2023-03-29T19:59:55.051Z,95118.16
2023-03-29T20:02:21.608Z,95120.28
2023-03-29T20:04:48.647Z,95102.81
2023-03-29T20:07:15.407Z,95092.13
2023-03-29T20:09:45.109Z,95081.97
2023-03-29T20:12:12.044Z,95092.50
2023-03-29T20:14:40.435Z,95086.59
2023-03-29T20:17:07.342Z,95078.88
2023-03-29T20:19:36.559Z,95091.03
2023-03-29T20:22:04.506Z,95081.47
2023-03-29T20:24:32.588Z,95082.41
2023-03-29T20:26:59.452Z,95084.31
2023-03-29T20:29:26.527Z,95084.69
2023-03-29T20:31:53.248Z,95076.97
2023-03-29T20:34:20.063Z,95069.91
2023-03-29T20:36:47.029Z,95081.78
2023-03-29T20:39:17.594Z,95075.28
2023-03-29T20:41:47.594Z,95069.78
2023-03-29T20:44:16.876Z,95066.56
2023-03-29T20:46:54.635Z,95061.47
2023-03-29T20:49:26.317Z,95056.81
2023-03-29T20:51:58.699Z,95046.06
2023-03-29T20:54:25.917Z,95043.47
2023-03-29T20:56:54.702Z,95041.25
2023-03-29T20:59:22.758Z,95040.78
2023-03-29T21:01:50.385Z,95034.97
2023-03-29T21:04:17.704Z,95031.31
2023-03-29T21:06:45.744Z,95026.00
2023-03-29T21:09:13.620Z,95022.63
2023-03-29T21:11:40.876Z,95020.03
2023-03-29T21:14:09.426Z,95010.19
2023-03-29T21:16:36.178Z,95006.34
2023-03-29T21:19:02.849Z,95006.69
2023-03-29T21:21:29.696Z,95004.47
2023-03-29T21:23:56.376Z,95008.22
2023-03-29T21:26:23.549Z,95005.50
2023-03-29T21:28:50.336Z,94987.75
2023-03-29T21:31:17.084Z,94989.09
2023-03-29T21:33:43.715Z,94985.38
2023-03-29T21:36:10.870Z,94987.50
2023-03-29T21:38:37.433Z,94992.81
2023-03-29T21:41:04.321Z,95000.09
2023-03-29T21:43:31.105Z,94998.03
2023-03-29T21:45:57.920Z,94998.09
2023-03-29T21:48:24.980Z,95002.78
2023-03-29T21:50:51.672Z,95007.97
2023-03-29T21:53:18.433Z,95001.19
2023-03-29T21:55:48.776Z,94997.97
2023-03-29T21:58:15.968Z,94996.34
2023-03-29T22:00:42.761Z,94991.81
2023-03-29T22:03:09.647Z,94982.88
2023-03-29T22:05:36.721Z,94981.31
2023-03-29T22:08:04.980Z,94980.63
2023-03-29T22:10:33.108Z,94979.28
2023-03-29T22:13:00.608Z,94982.63
2023-03-29T22:15:29.452Z,94981.47
2023-03-29T22:17:57.815Z,94975.81
2023-03-29T22:20:25.810Z,94975.97
2023-03-29T22:22:52.606Z,94976.63
2023-03-29T22:25:20.471Z,94977.97
2023-03-29T22:27:48.765Z,94973.09
2023-03-29T22:30:17.443Z,94971.00
2023-03-29T22:32:44.118Z,94971.16
2023-03-29T22:35:10.816Z,94963.91
2023-03-29T22:37:44.002Z,94959.72
2023-03-29T22:40:12.082Z,94959.38
2023-03-29T22:42:39.038Z,94955.66
2023-03-29T22:45:06.536Z,94954.56
2023-03-29T22:47:34.069Z,94947.72
2023-03-29T22:50:01.309Z,94945.97
2023-03-29T22:52:27.893Z,94939.84
2023-03-29T22:54:54.392Z,94949.03
2023-03-29T22:57:21.160Z,94945.97
2023-03-29T22:59:48.163Z,94941.28
2023-03-29T23:02:14.690Z,94928.84
2023-03-29T23:04:42.235Z,94930.94
2023-03-29T23:07:09.222Z,94928.53
2023-03-29T23:09:35.846Z,94933.69
2023-03-29T23:12:02.614Z,94926.91
2023-03-29T23:14:29.573Z,94926.78
2023-03-29T23:16:59.676Z,94918.06
2023-03-29T23:19:26.367Z,94922.56
2023-03-29T23:21:52.941Z,94927.91
2023-03-29T23:24:19.443Z,94930.16
2023-03-29T23:26:48.944Z,94923.22
2023-03-29T23:29:15.547Z,94914.00
2023-03-29T23:31:42.193Z,94911.28
2023-03-29T23:34:09.369Z,94918.41
2023-03-29T23:36:36.117Z,94913.88
2023-03-29T23:39:02.726Z,94911.63
2023-03-29T23:41:30.830Z,94907.59
2023-03-29T23:43:58.000Z,94913.88
2023-03-29T23:46:25.191Z,94913.72
2023-03-29T23:48:52.004Z,94911.31
2023-03-29T23:51:22.713Z,94911.94
2023-03-29T23:53:50.086Z,94902.56
2023-03-29T23:56:16.796Z,94908.22
2023-03-29T23:58:44.349Z,94915.34
